sensor_id;sensor_type;location;lat;lon;timestamp;P1;durP1;ratioP1;P2;durP2;ratioP2
15968;SDS011;8085;53.472;9.794;2022-12-11T00:01:53;21.57;;;12.77;;
15968;SDS011;8085;53.472;9.794;2022-12-11T00:04:20;22.07;;;12.83;;
15968;SDS011;8085;53.472;9.794;2022-12-11T00:06:48;26.33;;;13.27;;
15968;SDS011;8085;53.472;9.794;2022-12-11T00:09:14;22.50;;;13.13;;
15968;SDS011;8085;53.472;9.794;2022-12-11T00:11:42;23.50;;;13.30;;
15968;SDS011;8085;53.472;9.794;2022-12-11T00:14:09;22.67;;;12.77;;
15968;SDS011;8085;53.472;9.794;2022-12-11T00:16:37;24.37;;;14.23;;
15968;SDS011;8085;53.472;9.794;2022-12-11T00:19:04;24.87;;;13.87;;
15968;SDS011;8085;53.472;9.794;2022-12-11T00:21:31;22.90;;;13.27;;
15968;SDS011;8085;53.472;9.794;2022-12-11T00:23:58;24.33;;;13.10;;
15968;SDS011;8085;53.472;9.794;2022-12-11T00:26:25;22.83;;;13.53;;
15968;SDS011;8085;53.472;9.794;2022-12-11T00:28:53;23.13;;;13.53;;
15968;SDS011;8085;53.472;9.794;2022-12-11T00:31:21;22.87;;;13.30;;
15968;SDS011;8085;53.472;9.794;2022-12-11T00:33:50;26.83;;;13.00;;
15968;SDS011;8085;53.472;9.794;2022-12-11T00:36:18;22.40;;;13.00;;
15968;SDS011;8085;53.472;9.794;2022-12-11T00:38:46;19.77;;;12.57;;
15968;SDS011;8085;53.472;9.794;2022-12-11T00:41:13;24.43;;;13.13;;
15968;SDS011;8085;53.472;9.794;2022-12-11T00:43:41;18.90;;;11.67;;
15968;SDS011;8085;53.472;9.794;2022-12-11T00:46:08;24.60;;;12.83;;
15968;SDS011;8085;53.472;9.794;2022-12-11T00:48:35;24.10;;;12.63;;
15968;SDS011;8085;53.472;9.794;2022-12-11T00:51:04;20.77;;;11.67;;
15968;SDS011;8085;53.472;9.794;2022-12-11T00:53:31;20.50;;;12.17;;
15968;SDS011;8085;53.472;9.794;2022-12-11T00:55:58;19.40;;;12.37;;
15968;SDS011;8085;53.472;9.794;2022-12-11T00:58:25;20.30;;;12.23;;
15968;SDS011;8085;53.472;9.794;2022-12-11T01:00:52;19.57;;;11.63;;
15968;SDS011;8085;53.472;9.794;2022-12-11T01:03:19;18.47;;;11.80;;
15968;SDS011;8085;53.472;9.794;2022-12-11T01:05:50;21.33;;;12.63;;
15968;SDS011;8085;53.472;9.794;2022-12-11T01:08:19;20.90;;;11.63;;
15968;SDS011;8085;53.472;9.794;2022-12-11T01:10:46;20.10;;;11.47;;
15968;SDS011;8085;53.472;9.794;2022-12-11T01:13:13;20.80;;;11.87;;
15968;SDS011;8085;53.472;9.794;2022-12-11T01:15:41;21.73;;;12.07;;
15968;SDS011;8085;53.472;9.794;2022-12-11T01:18:10;23.20;;;12.73;;
15968;SDS011;8085;53.472;9.794;2022-12-11T01:20:40;19.60;;;12.33;;
15968;SDS011;8085;53.472;9.794;2022-12-11T01:23:08;20.50;;;11.83;;
15968;SDS011;8085;53.472;9.794;2022-12-11T01:25:39;22.77;;;11.30;;
15968;SDS011;8085;53.472;9.794;2022-12-11T01:28:06;21.33;;;12.20;;
15968;SDS011;8085;53.472;9.794;2022-12-11T01:30:33;20.27;;;11.87;;
15968;SDS011;8085;53.472;9.794;2022-12-11T01:33:01;22.53;;;11.50;;
15968;SDS011;8085;53.472;9.794;2022-12-11T01:35:28;22.40;;;12.43;;
15968;SDS011;8085;53.472;9.794;2022-12-11T01:37:55;22.17;;;12.27;;
15968;SDS011;8085;53.472;9.794;2022-12-11T01:40:21;18.13;;;11.87;;
15968;SDS011;8085;53.472;9.794;2022-12-11T01:42:51;19.90;;;11.87;;
15968;SDS011;8085;53.472;9.794;2022-12-11T01:45:27;25.00;;;12.73;;
15968;SDS011;8085;53.472;9.794;2022-12-11T01:48:02;23.47;;;11.87;;
15968;SDS011;8085;53.472;9.794;2022-12-11T01:50:32;21.13;;;11.73;;
15968;SDS011;8085;53.472;9.794;2022-12-11T01:53:02;21.30;;;12.10;;
15968;SDS011;8085;53.472;9.794;2022-12-11T01:55:32;19.93;;;11.90;;
15968;SDS011;8085;53.472;9.794;2022-12-11T01:58:01;18.03;;;11.00;;
15968;SDS011;8085;53.472;9.794;2022-12-11T02:00:29;19.13;;;12.03;;
15968;SDS011;8085;53.472;9.794;2022-12-11T02:02:55;21.97;;;11.23;;
15968;SDS011;8085;53.472;9.794;2022-12-11T02:05:22;16.50;;;10.37;;
15968;SDS011;8085;53.472;9.794;2022-12-11T02:07:50;16.33;;;10.40;;
15968;SDS011;8085;53.472;9.794;2022-12-11T02:10:20;16.07;;;10.03;;
15968;SDS011;8085;53.472;9.794;2022-12-11T02:12:51;20.73;;;10.83;;
15968;SDS011;8085;53.472;9.794;2022-12-11T02:15:26;17.53;;;10.40;;
15968;SDS011;8085;53.472;9.794;2022-12-11T02:18:01;17.20;;;9.80;;
15968;SDS011;8085;53.472;9.794;2022-12-11T02:20:34;19.03;;;10.07;;
15968;SDS011;8085;53.472;9.794;2022-12-11T02:23:11;20.37;;;10.60;;
15968;SDS011;8085;53.472;9.794;2022-12-11T02:26:02;18.47;;;11.00;;
15968;SDS011;8085;53.472;9.794;2022-12-11T02:28:39;18.40;;;11.23;;
15968;SDS011;8085;53.472;9.794;2022-12-11T02:31:12;19.07;;;10.57;;
15968;SDS011;8085;53.472;9.794;2022-12-11T02:33:47;17.30;;;10.77;;
15968;SDS011;8085;53.472;9.794;2022-12-11T02:36:20;18.17;;;11.10;;
15968;SDS011;8085;53.472;9.794;2022-12-11T02:38:50;17.83;;;11.07;;
15968;SDS011;8085;53.472;9.794;2022-12-11T02:41:20;21.87;;;10.80;;
15968;SDS011;8085;53.472;9.794;2022-12-11T02:43:50;18.10;;;10.53;;
15968;SDS011;8085;53.472;9.794;2022-12-11T02:46:18;19.47;;;11.23;;
15968;SDS011;8085;53.472;9.794;2022-12-11T02:48:47;15.97;;;10.13;;
15968;SDS011;8085;53.472;9.794;2022-12-11T02:51:17;21.70;;;11.80;;
15968;SDS011;8085;53.472;9.794;2022-12-11T02:53:50;19.13;;;10.40;;
15968;SDS011;8085;53.472;9.794;2022-12-11T02:56:21;16.33;;;10.37;;
15968;SDS011;8085;53.472;9.794;2022-12-11T02:58:54;18.53;;;10.93;;
15968;SDS011;8085;53.472;9.794;2022-12-11T03:01:25;20.53;;;10.60;;
15968;SDS011;8085;53.472;9.794;2022-12-11T03:03:52;16.73;;;10.87;;
15968;SDS011;8085;53.472;9.794;2022-12-11T03:06:20;20.57;;;11.30;;
15968;SDS011;8085;53.472;9.794;2022-12-11T03:08:51;21.10;;;11.10;;
15968;SDS011;8085;53.472;9.794;2022-12-11T03:11:19;18.93;;;10.67;;
15968;SDS011;8085;53.472;9.794;2022-12-11T03:13:45;20.07;;;11.30;;
15968;SDS011;8085;53.472;9.794;2022-12-11T03:16:15;17.10;;;11.23;;
15968;SDS011;8085;53.472;9.794;2022-12-11T03:18:51;22.10;;;12.80;;
15968;SDS011;8085;53.472;9.794;2022-12-11T03:21:26;18.97;;;11.07;;
15968;SDS011;8085;53.472;9.794;2022-12-11T03:24:00;17.37;;;11.23;;
15968;SDS011;8085;53.472;9.794;2022-12-11T03:26:31;22.67;;;11.10;;
15968;SDS011;8085;53.472;9.794;2022-12-11T03:29:02;22.37;;;11.77;;
15968;SDS011;8085;53.472;9.794;2022-12-11T03:31:36;19.87;;;10.93;;
15968;SDS011;8085;53.472;9.794;2022-12-11T03:34:08;19.90;;;11.40;;
15968;SDS011;8085;53.472;9.794;2022-12-11T03:36:38;19.03;;;11.70;;
15968;SDS011;8085;53.472;9.794;2022-12-11T03:39:08;20.03;;;11.20;;
15968;SDS011;8085;53.472;9.794;2022-12-11T03:41:38;19.97;;;10.43;;
15968;SDS011;8085;53.472;9.794;2022-12-11T03:44:06;23.13;;;11.90;;
15968;SDS011;8085;53.472;9.794;2022-12-11T03:46:35;19.37;;;11.37;;
15968;SDS011;8085;53.472;9.794;2022-12-11T03:49:05;17.47;;;10.73;;
15968;SDS011;8085;53.472;9.794;2022-12-11T03:51:35;20.93;;;11.27;;
15968;SDS011;8085;53.472;9.794;2022-12-11T03:54:04;19.67;;;11.50;;
15968;SDS011;8085;53.472;9.794;2022-12-11T03:56:31;18.57;;;11.80;;
15968;SDS011;8085;53.472;9.794;2022-12-11T03:59:01;22.40;;;12.33;;
15968;SDS011;8085;53.472;9.794;2022-12-11T04:01:27;16.87;;;10.27;;
15968;SDS011;8085;53.472;9.794;2022-12-11T04:03:56;20.03;;;10.90;;
15968;SDS011;8085;53.472;9.794;2022-12-11T04:06:23;17.97;;;10.80;;
15968;SDS011;8085;53.472;9.794;2022-12-11T04:08:50;20.07;;;11.13;;
15968;SDS011;8085;53.472;9.794;2022-12-11T04:11:17;21.27;;;12.13;;
15968;SDS011;8085;53.472;9.794;2022-12-11T04:13:59;18.43;;;10.77;;
15968;SDS011;8085;53.472;9.794;2022-12-11T04:16:44;19.13;;;11.40;;
15968;SDS011;8085;53.472;9.794;2022-12-11T04:19:12;20.43;;;11.10;;
15968;SDS011;8085;53.472;9.794;2022-12-11T04:21:56;17.70;;;10.97;;
15968;SDS011;8085;53.472;9.794;2022-12-11T04:24:37;18.80;;;11.60;;
15968;SDS011;8085;53.472;9.794;2022-12-11T04:27:04;18.50;;;10.97;;
15968;SDS011;8085;53.472;9.794;2022-12-11T04:29:31;19.03;;;11.80;;
15968;SDS011;8085;53.472;9.794;2022-12-11T04:31:58;20.33;;;11.13;;
15968;SDS011;8085;53.472;9.794;2022-12-11T04:34:26;17.83;;;11.07;;
15968;SDS011;8085;53.472;9.794;2022-12-11T04:36:53;16.57;;;10.47;;
15968;SDS011;8085;53.472;9.794;2022-12-11T04:39:20;18.53;;;10.57;;
15968;SDS011;8085;53.472;9.794;2022-12-11T04:41:46;15.87;;;10.30;;
15968;SDS011;8085;53.472;9.794;2022-12-11T04:44:13;17.67;;;10.00;;
15968;SDS011;8085;53.472;9.794;2022-12-11T04:46:40;14.83;;;9.40;;
15968;SDS011;8085;53.472;9.794;2022-12-11T04:49:08;17.90;;;10.80;;
15968;SDS011;8085;53.472;9.794;2022-12-11T04:51:36;17.37;;;9.53;;
15968;SDS011;8085;53.472;9.794;2022-12-11T04:54:03;18.47;;;8.97;;
15968;SDS011;8085;53.472;9.794;2022-12-11T04:56:30;16.77;;;9.60;;
15968;SDS011;8085;53.472;9.794;2022-12-11T04:58:57;19.57;;;9.97;;
15968;SDS011;8085;53.472;9.794;2022-12-11T05:01:24;15.33;;;9.80;;
15968;SDS011;8085;53.472;9.794;2022-12-11T05:03:51;14.37;;;8.63;;
15968;SDS011;8085;53.472;9.794;2022-12-11T05:06:17;17.77;;;9.30;;
15968;SDS011;8085;53.472;9.794;2022-12-11T05:08:45;16.67;;;9.27;;
15968;SDS011;8085;53.472;9.794;2022-12-11T05:11:13;16.00;;;9.27;;
15968;SDS011;8085;53.472;9.794;2022-12-11T05:13:41;15.87;;;9.37;;
15968;SDS011;8085;53.472;9.794;2022-12-11T05:16:09;14.50;;;9.03;;
15968;SDS011;8085;53.472;9.794;2022-12-11T05:18:38;16.37;;;8.77;;
15968;SDS011;8085;53.472;9.794;2022-12-11T05:21:05;14.13;;;8.80;;
15968;SDS011;8085;53.472;9.794;2022-12-11T05:23:33;14.83;;;8.70;;
15968;SDS011;8085;53.472;9.794;2022-12-11T05:26:02;14.13;;;8.33;;
15968;SDS011;8085;53.472;9.794;2022-12-11T05:28:31;15.73;;;8.93;;
15968;SDS011;8085;53.472;9.794;2022-12-11T05:31:00;14.90;;;8.70;;
15968;SDS011;8085;53.472;9.794;2022-12-11T05:33:30;14.63;;;8.80;;
15968;SDS011;8085;53.472;9.794;2022-12-11T05:35:58;14.60;;;8.53;;
15968;SDS011;8085;53.472;9.794;2022-12-11T05:38:25;16.30;;;8.03;;
15968;SDS011;8085;53.472;9.794;2022-12-11T05:40:55;13.20;;;8.53;;
15968;SDS011;8085;53.472;9.794;2022-12-11T05:43:24;16.23;;;8.77;;
15968;SDS011;8085;53.472;9.794;2022-12-11T05:45:53;16.07;;;8.43;;
15968;SDS011;8085;53.472;9.794;2022-12-11T05:48:20;14.53;;;7.30;;
15968;SDS011;8085;53.472;9.794;2022-12-11T05:50:55;14.77;;;8.10;;
15968;SDS011;8085;53.472;9.794;2022-12-11T05:53:23;14.23;;;8.13;;
15968;SDS011;8085;53.472;9.794;2022-12-11T05:55:50;13.90;;;7.97;;
15968;SDS011;8085;53.472;9.794;2022-12-11T05:58:17;12.13;;;7.27;;
15968;SDS011;8085;53.472;9.794;2022-12-11T06:00:46;11.93;;;7.00;;
15968;SDS011;8085;53.472;9.794;2022-12-11T06:03:14;10.47;;;6.73;;
15968;SDS011;8085;53.472;9.794;2022-12-11T06:05:41;10.20;;;6.33;;
15968;SDS011;8085;53.472;9.794;2022-12-11T06:08:08;13.03;;;6.83;;
15968;SDS011;8085;53.472;9.794;2022-12-11T06:10:35;12.50;;;6.77;;
15968;SDS011;8085;53.472;9.794;2022-12-11T06:13:02;12.47;;;7.47;;
15968;SDS011;8085;53.472;9.794;2022-12-11T06:15:29;11.70;;;7.00;;
15968;SDS011;8085;53.472;9.794;2022-12-11T06:17:57;14.03;;;7.90;;
15968;SDS011;8085;53.472;9.794;2022-12-11T06:20:24;13.40;;;7.87;;
15968;SDS011;8085;53.472;9.794;2022-12-11T06:22:51;13.17;;;7.27;;
15968;SDS011;8085;53.472;9.794;2022-12-11T06:25:18;14.63;;;8.10;;
15968;SDS011;8085;53.472;9.794;2022-12-11T06:27:44;13.90;;;8.43;;
15968;SDS011;8085;53.472;9.794;2022-12-11T06:30:12;11.90;;;7.70;;
15968;SDS011;8085;53.472;9.794;2022-12-11T06:32:39;13.40;;;8.03;;
15968;SDS011;8085;53.472;9.794;2022-12-11T06:35:07;14.47;;;7.60;;
15968;SDS011;8085;53.472;9.794;2022-12-11T06:37:35;13.67;;;7.80;;
15968;SDS011;8085;53.472;9.794;2022-12-11T06:40:03;13.20;;;7.53;;
15968;SDS011;8085;53.472;9.794;2022-12-11T06:42:30;12.53;;;8.13;;
15968;SDS011;8085;53.472;9.794;2022-12-11T06:44:57;12.90;;;7.77;;
15968;SDS011;8085;53.472;9.794;2022-12-11T06:47:24;14.80;;;7.93;;
15968;SDS011;8085;53.472;9.794;2022-12-11T06:49:52;12.37;;;7.87;;
15968;SDS011;8085;53.472;9.794;2022-12-11T06:52:20;13.50;;;7.93;;
15968;SDS011;8085;53.472;9.794;2022-12-11T06:54:47;13.13;;;8.17;;
15968;SDS011;8085;53.472;9.794;2022-12-11T06:57:14;10.50;;;6.97;;
15968;SDS011;8085;53.472;9.794;2022-12-11T06:59:41;9.93;;;7.13;;
15968;SDS011;8085;53.472;9.794;2022-12-11T07:02:09;13.90;;;8.00;;
15968;SDS011;8085;53.472;9.794;2022-12-11T07:04:38;13.87;;;8.07;;
15968;SDS011;8085;53.472;9.794;2022-12-11T07:07:05;15.83;;;8.33;;
15968;SDS011;8085;53.472;9.794;2022-12-11T07:09:33;12.37;;;7.77;;
15968;SDS011;8085;53.472;9.794;2022-12-11T07:12:02;14.93;;;8.03;;
15968;SDS011;8085;53.472;9.794;2022-12-11T07:14:29;13.37;;;8.57;;
15968;SDS011;8085;53.472;9.794;2022-12-11T07:16:56;13.43;;;8.47;;
15968;SDS011;8085;53.472;9.794;2022-12-11T07:19:23;13.70;;;8.17;;
15968;SDS011;8085;53.472;9.794;2022-12-11T07:21:50;14.03;;;7.90;;
15968;SDS011;8085;53.472;9.794;2022-12-11T07:24:17;12.77;;;8.00;;
15968;SDS011;8085;53.472;9.794;2022-12-11T07:26:45;14.23;;;8.00;;
15968;SDS011;8085;53.472;9.794;2022-12-11T07:29:12;13.83;;;7.60;;
15968;SDS011;8085;53.472;9.794;2022-12-11T07:31:39;14.17;;;8.27;;
15968;SDS011;8085;53.472;9.794;2022-12-11T07:34:06;13.07;;;7.73;;
15968;SDS011;8085;53.472;9.794;2022-12-11T07:36:33;11.13;;;6.80;;
15968;SDS011;8085;53.472;9.794;2022-12-11T07:39:00;13.13;;;7.70;;
15968;SDS011;8085;53.472;9.794;2022-12-11T07:41:27;13.70;;;7.10;;
15968;SDS011;8085;53.472;9.794;2022-12-11T07:43:57;11.47;;;7.60;;
15968;SDS011;8085;53.472;9.794;2022-12-11T07:46:26;12.87;;;7.63;;
15968;SDS011;8085;53.472;9.794;2022-12-11T07:48:55;14.30;;;7.90;;
15968;SDS011;8085;53.472;9.794;2022-12-11T07:51:22;12.70;;;7.90;;
15968;SDS011;8085;53.472;9.794;2022-12-11T07:53:52;14.97;;;8.10;;
15968;SDS011;8085;53.472;9.794;2022-12-11T07:56:20;11.77;;;7.30;;
15968;SDS011;8085;53.472;9.794;2022-12-11T07:58:47;13.77;;;8.53;;
15968;SDS011;8085;53.472;9.794;2022-12-11T08:01:16;15.20;;;9.70;;
15968;SDS011;8085;53.472;9.794;2022-12-11T08:03:44;13.90;;;8.57;;
15968;SDS011;8085;53.472;9.794;2022-12-11T08:06:11;14.13;;;8.10;;
15968;SDS011;8085;53.472;9.794;2022-12-11T08:08:38;12.23;;;7.60;;
15968;SDS011;8085;53.472;9.794;2022-12-11T08:11:06;13.63;;;7.53;;
15968;SDS011;8085;53.472;9.794;2022-12-11T08:13:35;14.37;;;7.93;;
15968;SDS011;8085;53.472;9.794;2022-12-11T08:16:03;13.07;;;7.97;;
15968;SDS011;8085;53.472;9.794;2022-12-11T08:18:32;14.17;;;8.20;;
15968;SDS011;8085;53.472;9.794;2022-12-11T08:21:03;14.67;;;7.97;;
15968;SDS011;8085;53.472;9.794;2022-12-11T08:23:30;14.00;;;8.83;;
15968;SDS011;8085;53.472;9.794;2022-12-11T08:25:57;16.37;;;9.83;;
15968;SDS011;8085;53.472;9.794;2022-12-11T08:28:24;28.97;;;15.93;;
15968;SDS011;8085;53.472;9.794;2022-12-11T08:30:51;26.70;;;16.37;;
15968;SDS011;8085;53.472;9.794;2022-12-11T08:33:18;15.33;;;8.87;;
15968;SDS011;8085;53.472;9.794;2022-12-11T08:35:46;15.07;;;9.53;;
15968;SDS011;8085;53.472;9.794;2022-12-11T08:38:13;15.40;;;8.37;;
15968;SDS011;8085;53.472;9.794;2022-12-11T08:40:39;15.17;;;8.23;;
15968;SDS011;8085;53.472;9.794;2022-12-11T08:43:06;13.97;;;8.03;;
15968;SDS011;8085;53.472;9.794;2022-12-11T08:45:33;16.83;;;9.77;;
15968;SDS011;8085;53.472;9.794;2022-12-11T08:48:00;15.87;;;8.87;;
15968;SDS011;8085;53.472;9.794;2022-12-11T08:50:27;15.83;;;7.87;;
15968;SDS011;8085;53.472;9.794;2022-12-11T08:52:56;17.20;;;10.00;;
15968;SDS011;8085;53.472;9.794;2022-12-11T08:55:23;11.90;;;7.40;;
15968;SDS011;8085;53.472;9.794;2022-12-11T08:57:50;13.93;;;7.87;;
15968;SDS011;8085;53.472;9.794;2022-12-11T09:00:17;15.77;;;8.93;;
15968;SDS011;8085;53.472;9.794;2022-12-11T09:02:44;16.90;;;8.60;;
15968;SDS011;8085;53.472;9.794;2022-12-11T09:05:10;16.13;;;8.87;;
15968;SDS011;8085;53.472;9.794;2022-12-11T09:07:37;16.73;;;9.23;;
15968;SDS011;8085;53.472;9.794;2022-12-11T09:10:06;16.23;;;8.47;;
15968;SDS011;8085;53.472;9.794;2022-12-11T09:12:34;12.90;;;8.57;;
15968;SDS011;8085;53.472;9.794;2022-12-11T09:15:02;18.93;;;9.57;;
15968;SDS011;8085;53.472;9.794;2022-12-11T09:17:29;14.77;;;8.23;;
15968;SDS011;8085;53.472;9.794;2022-12-11T09:19:56;15.93;;;8.97;;
15968;SDS011;8085;53.472;9.794;2022-12-11T09:22:24;13.90;;;8.20;;
15968;SDS011;8085;53.472;9.794;2022-12-11T09:24:51;16.47;;;8.20;;
15968;SDS011;8085;53.472;9.794;2022-12-11T09:27:19;13.83;;;8.50;;
15968;SDS011;8085;53.472;9.794;2022-12-11T09:29:46;17.47;;;10.07;;
15968;SDS011;8085;53.472;9.794;2022-12-11T09:32:13;17.23;;;8.73;;
15968;SDS011;8085;53.472;9.794;2022-12-11T09:34:40;15.17;;;8.43;;
15968;SDS011;8085;53.472;9.794;2022-12-11T09:37:07;13.30;;;8.30;;
15968;SDS011;8085;53.472;9.794;2022-12-11T09:39:33;14.80;;;7.77;;
15968;SDS011;8085;53.472;9.794;2022-12-11T09:42:01;12.83;;;7.80;;
15968;SDS011;8085;53.472;9.794;2022-12-11T09:44:38;14.07;;;7.73;;
15968;SDS011;8085;53.472;9.794;2022-12-11T09:47:12;13.57;;;8.47;;
15968;SDS011;8085;53.472;9.794;2022-12-11T09:49:44;14.57;;;8.70;;
15968;SDS011;8085;53.472;9.794;2022-12-11T09:52:13;12.37;;;6.83;;
15968;SDS011;8085;53.472;9.794;2022-12-11T09:54:44;11.33;;;7.03;;
15968;SDS011;8085;53.472;9.794;2022-12-11T10:00:14;9.30;;;5.80;;
15968;SDS011;8085;53.472;9.794;2022-12-11T10:02:48;10.97;;;7.07;;
15968;SDS011;8085;53.472;9.794;2022-12-11T10:05:30;10.37;;;7.00;;
15968;SDS011;8085;53.472;9.794;2022-12-11T10:08:04;10.43;;;6.20;;
15968;SDS011;8085;53.472;9.794;2022-12-11T10:10:39;13.17;;;6.60;;
15968;SDS011;8085;53.472;9.794;2022-12-11T10:13:12;9.70;;;6.13;;
15968;SDS011;8085;53.472;9.794;2022-12-11T10:15:48;9.37;;;6.50;;
15968;SDS011;8085;53.472;9.794;2022-12-11T10:18:20;9.20;;;6.20;;
15968;SDS011;8085;53.472;9.794;2022-12-11T10:20:49;10.87;;;6.20;;
15968;SDS011;8085;53.472;9.794;2022-12-11T10:23:19;11.97;;;6.67;;
15968;SDS011;8085;53.472;9.794;2022-12-11T10:25:50;9.40;;;6.30;;
15968;SDS011;8085;53.472;9.794;2022-12-11T10:28:22;13.10;;;7.07;;
15968;SDS011;8085;53.472;9.794;2022-12-11T10:30:53;13.57;;;7.27;;
15968;SDS011;8085;53.472;9.794;2022-12-11T10:33:25;9.43;;;6.40;;
15968;SDS011;8085;53.472;9.794;2022-12-11T10:35:57;10.73;;;6.43;;
15968;SDS011;8085;53.472;9.794;2022-12-11T10:38:25;11.20;;;6.40;;
15968;SDS011;8085;53.472;9.794;2022-12-11T10:40:56;10.63;;;6.83;;
15968;SDS011;8085;53.472;9.794;2022-12-11T10:43:33;14.23;;;7.20;;
15968;SDS011;8085;53.472;9.794;2022-12-11T10:46:03;11.83;;;6.83;;
15968;SDS011;8085;53.472;9.794;2022-12-11T10:48:31;10.37;;;7.00;;
15968;SDS011;8085;53.472;9.794;2022-12-11T10:50:59;11.03;;;7.43;;
15968;SDS011;8085;53.472;9.794;2022-12-11T10:53:27;10.70;;;7.20;;
15968;SDS011;8085;53.472;9.794;2022-12-11T10:55:55;11.27;;;7.00;;
15968;SDS011;8085;53.472;9.794;2022-12-11T10:58:24;9.90;;;6.57;;
15968;SDS011;8085;53.472;9.794;2022-12-11T11:00:59;11.77;;;6.37;;
15968;SDS011;8085;53.472;9.794;2022-12-11T11:03:31;10.97;;;7.13;;
15968;SDS011;8085;53.472;9.794;2022-12-11T11:06:05;10.47;;;7.10;;
15968;SDS011;8085;53.472;9.794;2022-12-11T11:08:40;11.70;;;6.87;;
15968;SDS011;8085;53.472;9.794;2022-12-11T11:11:15;12.23;;;7.37;;
15968;SDS011;8085;53.472;9.794;2022-12-11T11:13:48;10.97;;;7.10;;
15968;SDS011;8085;53.472;9.794;2022-12-11T11:16:17;9.30;;;6.13;;
15968;SDS011;8085;53.472;9.794;2022-12-11T11:18:50;13.87;;;8.80;;
15968;SDS011;8085;53.472;9.794;2022-12-11T11:21:19;19.57;;;12.17;;
15968;SDS011;8085;53.472;9.794;2022-12-11T11:23:48;11.37;;;7.13;;
15968;SDS011;8085;53.472;9.794;2022-12-11T11:26:15;18.40;;;11.40;;
15968;SDS011;8085;53.472;9.794;2022-12-11T11:28:46;11.03;;;6.87;;
15968;SDS011;8085;53.472;9.794;2022-12-11T11:31:15;12.10;;;7.30;;
15968;SDS011;8085;53.472;9.794;2022-12-11T11:33:45;14.20;;;7.73;;
15968;SDS011;8085;53.472;9.794;2022-12-11T11:36:20;13.60;;;7.33;;
15968;SDS011;8085;53.472;9.794;2022-12-11T11:38:49;13.80;;;8.60;;
15968;SDS011;8085;53.472;9.794;2022-12-11T11:41:30;12.73;;;7.23;;
15968;SDS011;8085;53.472;9.794;2022-12-11T11:44:03;13.13;;;7.43;;
15968;SDS011;8085;53.472;9.794;2022-12-11T11:46:34;13.10;;;7.00;;
15968;SDS011;8085;53.472;9.794;2022-12-11T11:49:06;11.50;;;7.07;;
15968;SDS011;8085;53.472;9.794;2022-12-11T11:51:42;16.17;;;7.17;;
15968;SDS011;8085;53.472;9.794;2022-12-11T11:54:17;11.63;;;7.30;;
15968;SDS011;8085;53.472;9.794;2022-12-11T11:56:50;11.93;;;7.07;;
15968;SDS011;8085;53.472;9.794;2022-12-11T11:59:20;13.03;;;6.63;;
15968;SDS011;8085;53.472;9.794;2022-12-11T12:01:53;11.63;;;6.83;;
15968;SDS011;8085;53.472;9.794;2022-12-11T12:04:21;11.73;;;7.23;;
15968;SDS011;8085;53.472;9.794;2022-12-11T12:06:55;10.93;;;6.70;;
15968;SDS011;8085;53.472;9.794;2022-12-11T12:09:45;10.10;;;6.30;;
15968;SDS011;8085;53.472;9.794;2022-12-11T12:12:21;11.13;;;6.93;;
15968;SDS011;8085;53.472;9.794;2022-12-11T12:15:01;10.93;;;6.80;;
15968;SDS011;8085;53.472;9.794;2022-12-11T12:17:51;10.93;;;7.10;;
15968;SDS011;8085;53.472;9.794;2022-12-11T12:20:23;10.40;;;6.63;;
15968;SDS011;8085;53.472;9.794;2022-12-11T12:22:58;10.23;;;6.73;;
15968;SDS011;8085;53.472;9.794;2022-12-11T12:25:38;12.23;;;7.83;;
15968;SDS011;8085;53.472;9.794;2022-12-11T12:28:13;12.67;;;7.60;;
15968;SDS011;8085;53.472;9.794;2022-12-11T12:30:50;10.50;;;7.60;;
15968;SDS011;8085;53.472;9.794;2022-12-11T12:33:33;13.97;;;7.77;;
15968;SDS011;8085;53.472;9.794;2022-12-11T12:36:10;12.27;;;7.47;;
15968;SDS011;8085;53.472;9.794;2022-12-11T12:38:45;10.37;;;7.40;;
15968;SDS011;8085;53.472;9.794;2022-12-11T12:41:19;10.10;;;6.80;;
15968;SDS011;8085;53.472;9.794;2022-12-11T12:43:56;11.00;;;7.27;;
15968;SDS011;8085;53.472;9.794;2022-12-11T12:46:33;12.17;;;8.17;;
15968;SDS011;8085;53.472;9.794;2022-12-11T12:49:14;11.27;;;7.13;;
15968;SDS011;8085;53.472;9.794;2022-12-11T12:51:52;10.63;;;6.47;;
15968;SDS011;8085;53.472;9.794;2022-12-11T12:54:20;11.53;;;6.77;;
15968;SDS011;8085;53.472;9.794;2022-12-11T12:56:48;12.23;;;7.30;;
15968;SDS011;8085;53.472;9.794;2022-12-11T12:59:19;14.37;;;8.53;;
15968;SDS011;8085;53.472;9.794;2022-12-11T13:01:47;14.73;;;8.30;;
15968;SDS011;8085;53.472;9.794;2022-12-11T13:04:33;13.97;;;7.57;;
15968;SDS011;8085;53.472;9.794;2022-12-11T13:07:11;10.37;;;6.57;;
15968;SDS011;8085;53.472;9.794;2022-12-11T13:09:41;12.40;;;7.67;;
15968;SDS011;8085;53.472;9.794;2022-12-11T13:12:12;10.70;;;6.53;;
15968;SDS011;8085;53.472;9.794;2022-12-11T13:14:40;11.40;;;6.97;;
15968;SDS011;8085;53.472;9.794;2022-12-11T13:17:25;11.63;;;6.73;;
15968;SDS011;8085;53.472;9.794;2022-12-11T13:20:14;12.20;;;6.93;;
15968;SDS011;8085;53.472;9.794;2022-12-11T13:22:47;11.73;;;6.93;;
15968;SDS011;8085;53.472;9.794;2022-12-11T13:25:30;12.17;;;7.17;;
15968;SDS011;8085;53.472;9.794;2022-12-11T13:28:04;12.13;;;7.33;;
15968;SDS011;8085;53.472;9.794;2022-12-11T13:30:32;10.50;;;7.17;;
15968;SDS011;8085;53.472;9.794;2022-12-11T13:33:01;11.77;;;7.43;;
15968;SDS011;8085;53.472;9.794;2022-12-11T13:35:31;9.97;;;6.30;;
15968;SDS011;8085;53.472;9.794;2022-12-11T13:38:03;11.53;;;7.27;;
15968;SDS011;8085;53.472;9.794;2022-12-11T13:40:34;10.47;;;6.27;;
15968;SDS011;8085;53.472;9.794;2022-12-11T13:43:06;11.83;;;6.70;;
15968;SDS011;8085;53.472;9.794;2022-12-11T13:45:42;11.23;;;6.40;;
15968;SDS011;8085;53.472;9.794;2022-12-11T13:48:15;10.43;;;6.67;;
15968;SDS011;8085;53.472;9.794;2022-12-11T13:50:47;10.60;;;6.50;;
15968;SDS011;8085;53.472;9.794;2022-12-11T13:53:21;10.73;;;6.30;;
15968;SDS011;8085;53.472;9.794;2022-12-11T13:55:55;10.50;;;6.80;;
15968;SDS011;8085;53.472;9.794;2022-12-11T13:58:23;11.47;;;7.03;;
15968;SDS011;8085;53.472;9.794;2022-12-11T14:00:52;12.07;;;7.00;;
15968;SDS011;8085;53.472;9.794;2022-12-11T14:03:22;11.30;;;6.97;;
15968;SDS011;8085;53.472;9.794;2022-12-11T14:05:51;10.57;;;6.53;;
15968;SDS011;8085;53.472;9.794;2022-12-11T14:08:19;11.83;;;6.83;;
15968;SDS011;8085;53.472;9.794;2022-12-11T14:10:50;12.10;;;6.40;;
15968;SDS011;8085;53.472;9.794;2022-12-11T14:13:19;10.80;;;6.63;;
15968;SDS011;8085;53.472;9.794;2022-12-11T14:15:48;12.03;;;7.30;;
15968;SDS011;8085;53.472;9.794;2022-12-11T14:18:17;12.67;;;7.47;;
15968;SDS011;8085;53.472;9.794;2022-12-11T14:20:53;16.50;;;6.23;;
15968;SDS011;8085;53.472;9.794;2022-12-11T14:23:22;13.20;;;6.47;;
15968;SDS011;8085;53.472;9.794;2022-12-11T14:25:51;10.83;;;6.70;;
15968;SDS011;8085;53.472;9.794;2022-12-11T14:28:19;11.03;;;6.47;;
15968;SDS011;8085;53.472;9.794;2022-12-11T14:30:48;11.03;;;6.90;;
15968;SDS011;8085;53.472;9.794;2022-12-11T14:33:17;10.97;;;6.40;;
15968;SDS011;8085;53.472;9.794;2022-12-11T14:35:45;10.13;;;6.30;;
15968;SDS011;8085;53.472;9.794;2022-12-11T14:38:17;11.03;;;6.70;;
15968;SDS011;8085;53.472;9.794;2022-12-11T14:40:47;12.07;;;7.00;;
15968;SDS011;8085;53.472;9.794;2022-12-11T14:43:19;11.90;;;7.17;;
15968;SDS011;8085;53.472;9.794;2022-12-11T14:45:48;14.33;;;7.50;;
15968;SDS011;8085;53.472;9.794;2022-12-11T14:48:19;10.60;;;6.67;;
15968;SDS011;8085;53.472;9.794;2022-12-11T14:50:49;11.03;;;6.30;;
15968;SDS011;8085;53.472;9.794;2022-12-11T14:53:20;11.70;;;6.80;;
15968;SDS011;8085;53.472;9.794;2022-12-11T14:55:51;12.97;;;7.60;;
15968;SDS011;8085;53.472;9.794;2022-12-11T14:58:19;13.73;;;7.00;;
15968;SDS011;8085;53.472;9.794;2022-12-11T15:00:54;13.73;;;7.13;;
15968;SDS011;8085;53.472;9.794;2022-12-11T15:03:23;15.30;;;8.80;;